createdAt,value
2018-04-23T00:02:02.796Z,18.8
2018-04-23T00:07:03.371Z,18.7
2018-04-23T00:12:03.372Z,18.7
2018-04-23T00:17:03.213Z,18.7
2018-04-23T00:22:03.540Z,18.7
2018-04-23T00:27:03.159Z,18.5
2018-04-23T00:32:03.612Z,18.4
2018-04-23T00:37:03.278Z,18.4
2018-04-23T00:42:02.730Z,18.2
2018-04-23T00:47:03.328Z,18.1
2018-04-23T00:52:03.049Z,18.2
2018-04-23T00:57:03.470Z,18.1
2018-04-23T01:02:03.132Z,18.1
2018-04-23T01:07:02.938Z,18.0
2018-04-23T01:12:03.670Z,17.9
2018-04-23T01:17:03.468Z,17.9
2018-04-23T01:22:03.151Z,17.9
2018-04-23T01:27:03.504Z,17.8
2018-04-23T01:32:03.103Z,17.8
2018-04-23T01:37:03.681Z,17.7
2018-04-23T01:42:03.163Z,17.7
2018-04-23T01:47:03.717Z,17.8
2018-04-23T01:52:03.218Z,17.7
2018-04-23T01:57:03.574Z,17.6
2018-04-23T02:02:03.052Z,17.4
2018-04-23T02:07:03.360Z,17.4
2018-04-23T02:12:03.095Z,17.5
2018-04-23T02:17:03.553Z,17.5
2018-04-23T02:22:03.089Z,17.4
2018-04-23T02:27:03.669Z,17.5
2018-04-23T02:32:03.068Z,17.4
2018-04-23T02:37:02.816Z,17.3
2018-04-23T02:42:02.896Z,17.3
2018-04-23T02:47:03.047Z,17.2
2018-04-23T02:52:03.131Z,17.1
2018-04-23T02:57:03.170Z,17.2
2018-04-23T03:02:03.340Z,17.1
2018-04-23T03:07:03.508Z,17.0
2018-04-23T03:12:02.757Z,17.0
2018-04-23T03:17:03.083Z,16.9
2018-04-23T03:22:03.212Z,16.9
2018-04-23T03:27:03.283Z,16.9
2018-04-23T03:32:03.369Z,16.9
2018-04-23T03:37:03.549Z,16.9
2018-04-23T03:42:03.498Z,16.9
2018-04-23T03:47:03.451Z,16.8
2018-04-23T03:52:03.108Z,16.8
2018-04-23T03:57:03.261Z,16.6
2018-04-23T04:02:14.053Z,16.5
2018-04-23T04:07:02.998Z,16.5
2018-04-23T04:12:03.334Z,16.5
2018-04-23T04:17:13.313Z,16.4
2018-04-23T04:22:03.461Z,16.4
2018-04-23T04:27:02.759Z,16.3
2018-04-23T04:32:13.354Z,16.3
2018-04-23T04:37:03.161Z,16.2
2018-04-23T04:42:03.275Z,16.3
2018-04-23T04:47:13.828Z,16.3
2018-04-23T04:52:02.614Z,16.2
2018-04-23T04:57:02.759Z,16.2
2018-04-23T05:02:13.035Z,16.3
2018-04-23T05:07:03.282Z,16.3
2018-04-23T05:12:03.537Z,16.4
2018-04-23T05:17:14.032Z,16.7
2018-04-23T05:22:02.807Z,16.8
2018-04-23T05:27:03.044Z,16.7
2018-04-23T05:32:12.625Z,16.8
2018-04-23T05:37:03.401Z,16.9
2018-04-23T05:42:03.506Z,17.1
2018-04-23T05:47:13.448Z,17.3
2018-04-23T05:52:02.939Z,17.3
2018-04-23T05:57:03.197Z,17.8
2018-04-23T06:02:14.218Z,18.0
2018-04-23T06:07:02.767Z,18.2
2018-04-23T06:12:03.124Z,18.5
2018-04-23T06:17:13.888Z,18.5
2018-04-23T06:22:03.590Z,18.7
2018-04-23T06:27:02.708Z,18.9
2018-04-23T06:32:13.929Z,18.9
2018-04-23T06:37:03.300Z,19.2
2018-04-23T06:42:03.458Z,20.2
2018-04-23T06:47:13.410Z,20.1
2018-04-23T06:52:02.808Z,20.7
2018-04-23T06:57:03.049Z,21.2
2018-04-23T07:02:13.959Z,22.1
2018-04-23T07:07:03.485Z,22.5
2018-04-23T07:12:02.834Z,23.0
2018-04-23T07:17:17.181Z,23.4
2018-04-23T07:22:03.419Z,23.3
2018-04-23T07:27:03.536Z,23.7
2018-04-23T07:32:12.749Z,24.3
2018-04-23T07:37:03.050Z,24.5
2018-04-23T07:42:03.211Z,23.9
2018-04-23T07:47:17.173Z,23.8
2018-04-23T07:52:02.672Z,23.1
2018-04-23T07:57:02.873Z,22.2
2018-04-23T08:02:15.829Z,20.8
2018-04-23T08:07:03.394Z,19.9
2018-04-23T08:12:02.772Z,19.8
2018-04-23T08:17:13.232Z,19.8
2018-04-23T08:22:03.245Z,19.8
2018-04-23T08:27:03.053Z,19.8
2018-04-23T08:32:14.956Z,19.9
2018-04-23T08:37:03.494Z,20.2
2018-04-23T08:42:02.767Z,20.6
2018-04-23T08:47:22.984Z,21.0
2018-04-23T08:52:03.180Z,21.7
2018-04-23T08:57:03.383Z,21.7
2018-04-23T09:02:13.841Z,22.3
2018-04-23T09:07:02.915Z,22.2
2018-04-23T09:12:03.312Z,22.5
2018-04-23T09:17:11.294Z,22.7
2018-04-23T09:22:02.735Z,22.6
2018-04-23T09:27:02.966Z,23.2
2018-04-23T09:32:14.111Z,23.2
2018-04-23T09:37:03.507Z,22.6
2018-04-23T09:42:02.622Z,22.6
2018-04-23T09:47:12.722Z,21.7
2018-04-23T09:52:03.168Z,21.7
2018-04-23T09:57:03.294Z,21.0
2018-04-23T10:02:13.293Z,20.7
2018-04-23T10:07:02.878Z,20.7
2018-04-23T10:12:03.169Z,20.4
2018-04-23T10:17:08.867Z,20.2
2018-04-23T10:22:03.606Z,20.4
2018-04-23T10:27:02.794Z,20.5
2018-04-23T10:32:10.710Z,20.7
2018-04-23T10:37:03.174Z,21.0
2018-04-23T10:42:03.402Z,21.2
2018-04-23T10:47:13.303Z,21.2
2018-04-23T10:52:02.704Z,21.1
2018-04-23T10:57:02.926Z,21.1
2018-04-23T11:02:09.946Z,20.6
2018-04-23T11:07:03.475Z,20.6
2018-04-23T11:12:02.701Z,20.5
2018-04-23T11:17:17.256Z,20.4
2018-04-23T11:22:03.378Z,20.3
2018-04-23T11:27:03.559Z,20.3
2018-04-23T11:32:13.433Z,20.3
2018-04-23T11:37:02.980Z,20.2
2018-04-23T11:42:03.086Z,19.9
2018-04-23T11:47:08.938Z,19.7
2018-04-23T11:52:03.097Z,19.3
2018-04-23T11:57:03.322Z,19.3
2018-04-23T12:02:11.089Z,19.1
2018-04-23T12:07:03.443Z,18.3
2018-04-23T12:12:02.797Z,18.3
2018-04-23T12:17:17.149Z,18.1
2018-04-23T12:22:03.282Z,17.9
2018-04-23T12:27:03.180Z,17.9
2018-04-23T12:32:14.244Z,17.9
2018-04-23T12:37:03.480Z,18.0
2018-04-23T12:42:02.657Z,18.0
2018-04-23T12:47:12.219Z,18.3
2018-04-23T12:52:03.123Z,18.9
2018-04-23T12:57:03.364Z,19.5
2018-04-23T13:02:17.586Z,19.8
2018-04-23T13:07:02.874Z,20.1
2018-04-23T13:12:03.252Z,20.0
2018-04-23T13:17:09.284Z,20.9
2018-04-23T13:22:03.178Z,21.0
2018-04-23T13:27:03.493Z,22.0
2018-04-23T13:32:13.957Z,22.0
2018-04-23T13:37:03.237Z,21.8
2018-04-23T13:42:03.445Z,22.0
2018-04-23T13:47:12.570Z,22.3
2018-04-23T13:52:03.456Z,23.0
2018-04-23T13:57:02.740Z,23.0
2018-04-23T14:02:13.152Z,24.8
2018-04-23T14:07:03.413Z,24.8
2018-04-23T14:12:03.674Z,24.2
2018-04-23T14:17:13.790Z,23.6
2018-04-23T14:22:03.505Z,23.2
2018-04-23T14:27:02.684Z,22.8
2018-04-23T14:32:13.305Z,22.8
2018-04-23T14:37:02.978Z,22.4
2018-04-23T14:42:03.179Z,22.0
2018-04-23T14:47:14.584Z,21.2
2018-04-23T14:52:03.333Z,20.8
2018-04-23T14:57:03.258Z,20.8
2018-04-23T15:02:13.521Z,20.2
2018-04-23T15:07:02.827Z,20.1
2018-04-23T15:12:03.145Z,19.7
2018-04-23T15:17:18.726Z,19.7
2018-04-23T15:22:03.412Z,19.1
2018-04-23T15:27:03.318Z,19.1
2018-04-23T15:32:10.675Z,18.8
2018-04-23T15:37:03.619Z,18.5
2018-04-23T15:42:02.720Z,18.1
2018-04-23T15:47:18.064Z,18.0
2018-04-23T15:52:02.794Z,18.0
2018-04-23T15:57:02.996Z,18.0
2018-04-23T16:02:09.871Z,18.0
2018-04-23T16:07:02.879Z,18.0
2018-04-23T16:12:03.280Z,18.0
2018-04-23T16:17:14.583Z,18.0
2018-04-23T16:22:02.784Z,18.0
2018-04-23T16:27:03.020Z,18.0
2018-04-23T16:32:04.077Z,18.0
2018-04-23T16:37:02.842Z,17.8
2018-04-23T16:42:03.031Z,17.7
2018-04-23T16:47:14.890Z,17.6
2018-04-23T16:52:02.801Z,17.6
2018-04-23T16:57:02.991Z,17.5
2018-04-23T17:02:15.540Z,17.5
2018-04-23T17:07:03.180Z,17.4
2018-04-23T17:12:03.440Z,17.3
2018-04-23T17:17:13.915Z,17.3
2018-04-23T17:22:03.383Z,17.3
2018-04-23T17:27:03.512Z,17.2
2018-04-23T17:32:12.404Z,19.0
2018-04-23T17:37:02.909Z,19.0
2018-04-23T17:42:03.047Z,19.8
2018-04-23T17:47:13.142Z,19.7
2018-04-23T17:52:03.506Z,19.5
2018-04-23T17:57:03.582Z,18.8
2018-04-23T18:02:13.401Z,18.3
2018-04-23T18:07:03.110Z,18.1
2018-04-23T18:12:03.405Z,17.6
2018-04-23T18:17:10.487Z,17.5
2018-04-23T18:22:02.956Z,17.4
2018-04-23T18:27:03.376Z,17.4
2018-04-23T18:32:13.810Z,17.3
2018-04-23T18:37:03.597Z,17.2
2018-04-23T18:42:03.236Z,17.2
2018-04-23T18:47:12.528Z,17.1
2018-04-23T18:52:03.355Z,17.0
2018-04-23T18:57:03.591Z,16.8
2018-04-23T19:02:06.217Z,16.7
2018-04-23T19:07:03.161Z,16.6
2018-04-23T19:12:03.527Z,16.6
2018-04-23T19:17:06.767Z,16.6
2018-04-23T19:22:03.009Z,16.6
2018-04-23T19:27:03.075Z,16.5
2018-04-23T19:32:03.225Z,16.4
2018-04-23T19:37:03.308Z,16.4
2018-04-23T19:42:03.448Z,16.1
2018-04-23T19:47:03.541Z,16.1
2018-04-23T19:52:02.769Z,16.0
2018-04-23T19:57:02.894Z,15.9
2018-04-23T20:02:03.097Z,15.7
2018-04-23T20:07:03.280Z,15.6
2018-04-23T20:12:03.534Z,15.6
2018-04-23T20:17:03.683Z,15.5
2018-04-23T20:22:02.845Z,15.3
2018-04-23T20:27:03.045Z,15.3
2018-04-23T20:32:03.161Z,15.2
2018-04-23T20:37:03.215Z,14.9
2018-04-23T20:42:03.354Z,14.9
2018-04-23T20:47:03.406Z,14.7
2018-04-23T20:52:02.733Z,14.6
2018-04-23T20:57:02.850Z,14.5
2018-04-23T21:02:03.484Z,14.6
2018-04-23T21:07:03.344Z,14.5
2018-04-23T21:12:03.637Z,14.5
2018-04-23T21:17:03.249Z,14.4
2018-04-23T21:22:03.099Z,14.3
2018-04-23T21:27:03.249Z,14.2
2018-04-23T21:32:04.138Z,14.1
2018-04-23T21:37:03.472Z,14.1
2018-04-23T21:42:03.634Z,14.1
2018-04-23T21:47:02.970Z,14.0
2018-04-23T21:52:03.042Z,13.9
2018-04-23T21:57:03.062Z,13.8
2018-04-23T22:02:04.188Z,13.8
2018-04-23T22:07:02.760Z,13.7
2018-04-23T22:12:03.449Z,13.6
2018-04-23T22:22:03.712Z,13.7
2018-04-23T22:27:03.146Z,13.6
2018-04-23T22:32:03.255Z,13.6
2018-04-23T22:37:03.403Z,13.6
2018-04-23T22:42:03.440Z,13.5
2018-04-23T22:47:03.508Z,13.5
2018-04-23T22:52:03.037Z,13.5
2018-04-23T22:57:03.082Z,13.5
2018-04-23T23:02:03.064Z,13.4
2018-04-23T23:07:03.053Z,13.2
2018-04-23T23:12:02.778Z,13.1
2018-04-23T23:17:03.370Z,13.1
2018-04-23T23:22:03.461Z,13.1
2018-04-23T23:27:03.006Z,13.0
2018-04-23T23:32:03.410Z,13.0
2018-04-23T23:37:03.401Z,12.9
2018-04-23T23:42:02.973Z,12.7
2018-04-23T23:47:03.546Z,12.5
2018-04-23T23:52:03.311Z,12.6
2018-04-23T23:57:02.891Z,12.5
